createdAt,value
2022-08-16T00:00:04.472Z,88.93
2022-08-16T00:01:01.106Z,88.67
2022-08-16T00:02:00.156Z,87.32
2022-08-16T00:03:00.083Z,86.82
2022-08-16T00:04:00.077Z,87.32
2022-08-16T00:05:00.342Z,87.58
2022-08-16T00:06:00.065Z,87.58
2022-08-16T00:07:00.063Z,87.82
2022-08-16T00:08:00.083Z,88.29
2022-08-16T00:09:00.020Z,87.68
2022-08-16T00:10:00.143Z,87.93
2022-08-16T00:11:00.013Z,88.12
2022-08-16T00:12:00.011Z,89.13
2022-08-16T00:13:00.009Z,88.39
2022-08-16T00:13:59.973Z,88.32
2022-08-16T00:14:59.974Z,89.43
2022-08-16T00:16:00.017Z,89.13
2022-08-16T00:17:15.777Z,88.32
2022-08-16T00:18:00.960Z,89.33
2022-08-16T00:18:59.964Z,88.17
2022-08-16T00:19:59.951Z,89.53
2022-08-16T00:20:59.913Z,89.27
2022-08-16T00:22:03.011Z,88.87
2022-08-16T00:23:00.871Z,89.27
2022-08-16T00:23:59.865Z,89.03
2022-08-16T00:25:00.925Z,89.37
2022-08-16T00:26:34.746Z,89.78
2022-08-16T00:27:00.935Z,90.32
2022-08-16T00:27:59.820Z,90.42
2022-08-16T00:28:59.800Z,91.13
2022-08-16T00:30:08.700Z,91.22
2022-08-16T00:31:01.034Z,91.87
2022-08-16T00:32:01.115Z,91.67
2022-08-16T00:33:00.764Z,91.47
2022-08-16T00:33:59.748Z,92.22
2022-08-16T00:35:00.689Z,93.12
2022-08-16T00:36:00.292Z,93.22
2022-08-16T00:36:59.713Z,94.02
2022-08-16T00:37:59.713Z,94.57
2022-08-16T00:38:59.685Z,93.16
2022-08-16T00:39:59.794Z,93.27
2022-08-16T00:40:59.692Z,92.26
2022-08-16T00:41:59.660Z,91.91
2022-08-16T00:42:59.653Z,92.22
2022-08-16T00:43:59.631Z,92.61
2022-08-16T00:44:59.702Z,92.41
2022-08-16T00:46:00.629Z,91.27
2022-08-16T00:47:06.211Z,91.01
2022-08-16T00:48:00.615Z,90.36
2022-08-16T00:48:59.590Z,89.96
2022-08-16T00:49:59.634Z,89.66
2022-08-16T00:50:59.709Z,89.06
2022-08-16T00:51:59.539Z,89.31
2022-08-16T00:52:59.933Z,88.81
2022-08-16T00:53:59.551Z,89.72
2022-08-16T00:54:59.622Z,88.61
2022-08-16T00:55:59.518Z,89.11
2022-08-16T00:56:59.995Z,89.37
2022-08-16T00:58:00.765Z,88.01
2022-08-16T00:59:01.235Z,89.07
2022-08-16T00:59:59.730Z,89.31
2022-08-16T01:00:59.467Z,88.71
2022-08-16T01:01:59.554Z,88.31
2022-08-16T01:02:59.433Z,88.41
2022-08-16T01:03:59.447Z,88.71
2022-08-16T01:05:10.625Z,89.42
2022-08-16T01:06:00.437Z,89.82
2022-08-16T01:07:02.302Z,89.42
2022-08-16T01:07:59.752Z,90.32
2022-08-16T01:09:00.218Z,90.22
2022-08-16T01:09:59.365Z,89.72
2022-08-16T01:11:00.149Z,90.06
2022-08-16T01:11:59.330Z,91.27
2022-08-16T01:13:00.229Z,91.11
2022-08-16T01:13:59.303Z,91.21
2022-08-16T01:14:59.383Z,91.82
2022-08-16T01:15:59.315Z,91.51
2022-08-16T01:16:59.271Z,91.71
2022-08-16T01:17:59.319Z,92.32
2022-08-16T01:18:59.276Z,92.61
2022-08-16T01:19:59.262Z,92.32
2022-08-16T01:20:59.265Z,92.02
2022-08-16T01:22:47.913Z,91.86
2022-08-16T01:23:00.447Z,91.86
2022-08-16T01:24:01.468Z,91.96
2022-08-16T01:24:59.278Z,91.96
2022-08-16T01:26:33.798Z,91.86
2022-08-16T01:27:03.687Z,92.10
2022-08-16T01:27:59.199Z,92.46
2022-08-16T01:28:59.142Z,92.40
2022-08-16T01:29:59.784Z,92.91
2022-08-16T01:30:59.134Z,92.95
2022-08-16T01:31:59.136Z,92.95
2022-08-16T01:33:02.413Z,92.95
2022-08-16T01:34:00.126Z,92.91
2022-08-16T01:34:59.131Z,93.15
2022-08-16T01:35:59.076Z,92.30
2022-08-16T01:36:59.054Z,92.50
2022-08-16T01:37:59.053Z,91.80
2022-08-16T01:38:59.134Z,92.30
2022-08-16T01:39:59.151Z,91.80
2022-08-16T01:41:02.073Z,92.40
2022-08-16T01:41:59.016Z,92.00
2022-08-16T01:42:58.992Z,92.80
2022-08-16T01:44:00.861Z,92.30
2022-08-16T01:44:59.077Z,92.85
2022-08-16T01:45:58.956Z,92.25
2022-08-16T01:46:58.958Z,92.40
2022-08-16T01:47:58.963Z,92.60
2022-08-16T01:48:58.931Z,92.55
2022-08-16T01:50:41.760Z,92.80
2022-08-16T01:51:09.032Z,92.20
2022-08-16T01:51:59.919Z,91.80
2022-08-16T01:52:58.956Z,91.30
2022-08-16T01:53:58.865Z,90.95
2022-08-16T01:54:59.411Z,90.75
2022-08-16T01:55:58.855Z,90.61
2022-08-16T01:56:58.875Z,90.30
2022-08-16T01:57:58.836Z,89.90
2022-08-16T01:58:58.835Z,89.80
2022-08-16T01:59:58.821Z,90.00
2022-08-16T02:00:58.835Z,89.80
2022-08-16T02:01:59.877Z,90.11
2022-08-16T02:02:58.776Z,91.11
2022-08-16T02:04:10.198Z,90.50
2022-08-16T02:04:59.769Z,91.15
2022-08-16T02:05:58.743Z,90.65
2022-08-16T02:06:58.741Z,90.30
2022-08-16T02:07:58.725Z,90.30
2022-08-16T02:08:58.750Z,90.11
2022-08-16T02:09:59.854Z,90.34
2022-08-16T02:10:58.700Z,90.30
2022-08-16T02:11:58.739Z,91.15
2022-08-16T02:13:00.607Z,90.95
2022-08-16T02:13:58.714Z,90.85
2022-08-16T02:14:59.517Z,90.45
2022-08-16T02:15:58.643Z,90.45
2022-08-16T02:16:58.643Z,90.15
2022-08-16T02:17:58.616Z,90.25
2022-08-16T02:18:58.659Z,90.30
2022-08-16T02:20:00.651Z,89.90
2022-08-16T02:20:58.600Z,89.70
2022-08-16T02:22:08.806Z,90.00
2022-08-16T02:22:59.711Z,89.90
2022-08-16T02:23:58.581Z,89.40
2022-08-16T02:24:58.602Z,89.40
2022-08-16T02:25:59.930Z,89.30
2022-08-16T02:26:58.542Z,89.30
2022-08-16T02:27:58.506Z,89.10
2022-08-16T02:28:58.518Z,89.30
2022-08-16T02:30:04.878Z,89.20
2022-08-16T02:30:59.508Z,89.40
2022-08-16T02:32:04.068Z,89.10
2022-08-16T02:32:59.454Z,89.40
2022-08-16T02:33:58.485Z,89.50
2022-08-16T02:34:58.494Z,89.60
2022-08-16T02:36:00.028Z,89.30
2022-08-16T02:36:58.443Z,89.70
2022-08-16T02:38:01.595Z,89.60
2022-08-16T02:38:59.402Z,89.40
2022-08-16T02:39:58.413Z,89.60
2022-08-16T02:40:59.050Z,88.70
2022-08-16T02:41:58.359Z,88.29
2022-08-16T02:42:58.351Z,88.59
2022-08-16T02:43:58.344Z,88.70
2022-08-16T02:44:58.457Z,88.29
2022-08-16T02:45:58.363Z,88.70
2022-08-16T02:46:58.347Z,88.19
2022-08-16T02:48:01.477Z,87.79
2022-08-16T02:49:00.165Z,88.09
2022-08-16T02:50:54.571Z,88.59
2022-08-16T02:51:10.322Z,88.70
2022-08-16T02:51:59.268Z,88.29
2022-08-16T02:52:58.242Z,88.29
2022-08-16T02:53:58.227Z,88.49
2022-08-16T02:54:58.276Z,88.49
2022-08-16T02:55:58.224Z,89.20
2022-08-16T02:56:58.210Z,88.39
2022-08-16T02:57:58.227Z,88.39
2022-08-16T02:58:58.214Z,88.90
2022-08-16T02:59:58.255Z,89.60
2022-08-16T03:00:58.263Z,89.60
2022-08-16T03:01:58.271Z,89.50
2022-08-16T03:02:58.155Z,89.60
2022-08-16T03:04:24.946Z,89.64
2022-08-16T03:04:59.194Z,89.75
2022-08-16T03:05:58.506Z,89.60
2022-08-16T03:06:58.102Z,89.60
2022-08-16T03:07:58.096Z,89.60
2022-08-16T03:08:58.089Z,89.64
2022-08-16T03:10:00.498Z,89.64
2022-08-16T03:10:59.386Z,89.44
2022-08-16T03:11:58.111Z,89.34
2022-08-16T03:12:58.431Z,89.34
2022-08-16T03:13:58.051Z,89.54
2022-08-16T03:14:58.043Z,89.44
2022-08-16T03:15:58.002Z,88.84
2022-08-16T03:16:59.331Z,89.90
2022-08-16T03:17:57.967Z,88.59
2022-08-16T03:18:58.004Z,88.70
2022-08-16T03:20:02.524Z,88.49
2022-08-16T03:20:58.937Z,88.09
2022-08-16T03:21:57.934Z,88.09
2022-08-16T03:22:57.919Z,87.69
2022-08-16T03:23:57.920Z,88.19
2022-08-16T03:24:57.965Z,88.39
2022-08-16T03:25:57.892Z,88.39
2022-08-16T03:26:58.782Z,88.09
2022-08-16T03:27:57.947Z,88.09
2022-08-16T03:28:57.902Z,88.09
2022-08-16T03:29:57.858Z,88.39
2022-08-16T03:30:57.867Z,88.64
2022-08-16T03:31:57.843Z,88.84
2022-08-16T03:32:57.830Z,88.19
2022-08-16T03:33:57.852Z,88.54
2022-08-16T03:34:57.847Z,88.84
2022-08-16T03:35:57.844Z,88.94
2022-08-16T03:36:57.764Z,89.64
2022-08-16T03:38:02.506Z,89.69
2022-08-16T03:38:58.761Z,89.39
2022-08-16T03:40:02.843Z,89.69
2022-08-16T03:40:58.755Z,90.89
2022-08-16T03:41:59.732Z,90.49
2022-08-16T03:43:02.115Z,90.73
2022-08-16T03:43:58.709Z,91.14
2022-08-16T03:45:03.638Z,91.34
2022-08-16T03:45:58.718Z,91.69
2022-08-16T03:46:58.317Z,91.99
2022-08-16T03:47:59.777Z,92.09
2022-08-16T03:48:57.743Z,91.89
2022-08-16T03:49:57.910Z,92.03
2022-08-16T03:51:00.183Z,92.33
2022-08-16T03:51:57.627Z,92.54
2022-08-16T03:53:03.111Z,92.47
2022-08-16T03:54:01.158Z,93.79
2022-08-16T03:54:59.287Z,93.73
2022-08-16T03:55:57.620Z,93.53
2022-08-16T03:56:58.683Z,94.64
2022-08-16T03:57:57.544Z,94.18
2022-08-16T03:58:57.527Z,94.89
2022-08-16T03:59:57.592Z,95.34
2022-08-16T04:00:59.418Z,96.25
2022-08-16T04:01:57.512Z,95.68
2022-08-16T04:02:57.500Z,96.75
2022-08-16T04:03:57.489Z,96.69
2022-08-16T04:04:57.514Z,96.80
2022-08-16T04:05:57.476Z,97.10
2022-08-16T04:06:57.497Z,97.05
2022-08-16T04:07:57.503Z,97.40
2022-08-16T04:08:57.468Z,97.71
2022-08-16T04:09:57.453Z,98.05
2022-08-16T04:10:58.003Z,97.91
2022-08-16T04:11:57.529Z,98.71
2022-08-16T04:13:01.932Z,98.11
2022-08-16T04:14:01.681Z,98.01
2022-08-16T04:14:58.445Z,97.71
2022-08-16T04:15:57.375Z,97.14
2022-08-16T04:16:57.396Z,98.01
2022-08-16T04:17:57.359Z,98.01
2022-08-16T04:19:02.245Z,97.50
2022-08-16T04:19:59.737Z,97.86
2022-08-16T04:20:57.318Z,96.65
2022-08-16T04:21:57.315Z,96.75
2022-08-16T04:22:57.341Z,96.85
2022-08-16T04:23:57.275Z,96.10
2022-08-16T04:24:59.405Z,96.20
2022-08-16T04:25:57.267Z,96.10
2022-08-16T04:26:57.267Z,96.00
2022-08-16T04:27:57.244Z,95.90
2022-08-16T04:29:20.988Z,95.49
2022-08-16T04:30:03.071Z,95.59
2022-08-16T04:30:58.186Z,95.39
2022-08-16T04:31:58.051Z,95.95
2022-08-16T04:32:57.187Z,95.45
2022-08-16T04:33:57.185Z,95.29
2022-08-16T04:34:57.172Z,95.95
2022-08-16T04:35:57.129Z,96.05
2022-08-16T04:36:57.122Z,95.55
2022-08-16T04:37:57.173Z,95.49
2022-08-16T04:38:57.117Z,95.35
2022-08-16T04:39:57.557Z,95.70
2022-08-16T04:40:57.150Z,96.10
2022-08-16T04:41:57.379Z,95.74
2022-08-16T04:42:57.094Z,95.74
2022-08-16T04:43:57.036Z,96.14
2022-08-16T04:44:57.074Z,96.49
2022-08-16T04:46:00.378Z,97.60
2022-08-16T04:47:02.846Z,98.31
2022-08-16T04:47:57.997Z,98.01
2022-08-16T04:48:57.001Z,97.45
2022-08-16T04:49:57.007Z,97.96
2022-08-16T04:50:56.989Z,97.65
2022-08-16T04:51:57.029Z,97.80
2022-08-16T04:52:56.989Z,97.90
2022-08-16T04:53:56.949Z,97.80
2022-08-16T04:54:56.988Z,97.90
2022-08-16T04:55:56.956Z,98.61
2022-08-16T04:56:56.908Z,99.66
2022-08-16T04:57:56.987Z,99.66
2022-08-16T04:58:57.824Z,99.36
2022-08-16T04:59:56.979Z,99.97
2022-08-16T05:00:56.895Z,99.87
2022-08-16T05:01:58.840Z,99.77
2022-08-16T05:02:58.816Z,99.99
2022-08-16T05:04:00.468Z,99.99
2022-08-16T05:04:56.909Z,99.99
2022-08-16T05:06:04.999Z,99.99
2022-08-16T05:06:57.797Z,99.99
2022-08-16T05:07:58.390Z,99.99
2022-08-16T05:08:56.800Z,99.99
2022-08-16T05:09:56.784Z,99.99
2022-08-16T05:10:59.847Z,99.99
2022-08-16T05:11:57.219Z,99.99
2022-08-16T05:12:56.760Z,99.99
2022-08-16T05:13:56.832Z,99.99
2022-08-16T05:15:02.112Z,99.99
2022-08-16T05:15:57.707Z,99.99
2022-08-16T05:16:56.711Z,99.99
2022-08-16T05:17:58.610Z,99.99
2022-08-16T05:18:57.012Z,99.99
2022-08-16T05:19:57.878Z,99.99
2022-08-16T05:21:06.537Z,99.99
2022-08-16T05:21:57.701Z,99.99
2022-08-16T05:22:56.615Z,99.99
2022-08-16T05:24:00.147Z,99.99
2022-08-16T05:24:56.676Z,99.99
2022-08-16T05:25:56.601Z,99.99
2022-08-16T05:26:56.781Z,99.99
2022-08-16T05:27:56.641Z,99.99
2022-08-16T05:28:56.558Z,99.99
2022-08-16T05:29:57.032Z,99.99
2022-08-16T05:30:56.549Z,99.99
2022-08-16T05:31:56.534Z,99.99
2022-08-16T05:32:56.513Z,99.99
2022-08-16T05:33:56.545Z,99.99
2022-08-16T05:34:56.546Z,99.99
2022-08-16T05:35:56.545Z,99.99
2022-08-16T05:36:56.528Z,99.98
2022-08-16T05:37:56.460Z,99.78
2022-08-16T05:38:56.440Z,99.99
2022-08-16T05:39:56.497Z,99.78
2022-08-16T05:40:59.760Z,99.58
2022-08-16T05:41:56.469Z,99.53
2022-08-16T05:42:56.431Z,99.73
2022-08-16T05:43:59.218Z,99.63
2022-08-16T05:44:56.421Z,99.13
2022-08-16T05:45:56.407Z,99.18
2022-08-16T05:46:56.411Z,98.78
2022-08-16T05:48:00.341Z,98.58
2022-08-16T05:49:01.764Z,97.72
2022-08-16T05:49:57.369Z,97.22
2022-08-16T05:50:56.318Z,97.32
2022-08-16T05:51:56.305Z,96.92
2022-08-16T05:52:56.299Z,96.26
2022-08-16T05:53:56.313Z,95.92
2022-08-16T05:55:01.026Z,94.85
2022-08-16T05:55:57.285Z,95.01
2022-08-16T05:56:56.260Z,95.07
2022-08-16T05:57:56.255Z,93.96
2022-08-16T05:58:56.234Z,93.86
2022-08-16T05:59:59.993Z,93.31
2022-08-16T06:00:56.228Z,92.91
2022-08-16T06:01:56.301Z,92.60
2022-08-16T06:02:56.201Z,92.66
2022-08-16T06:03:56.210Z,92.56
2022-08-16T06:04:56.252Z,91.86
2022-08-16T06:05:56.159Z,92.22
2022-08-16T06:06:57.449Z,91.61
2022-08-16T06:07:58.581Z,91.82
2022-08-16T06:08:56.129Z,90.00
2022-08-16T06:09:56.161Z,89.80
2022-08-16T06:11:09.805Z,89.46
2022-08-16T06:11:57.095Z,88.65
2022-08-16T06:12:56.217Z,88.21
2022-08-16T06:13:56.066Z,88.31
2022-08-16T06:14:56.096Z,88.71
2022-08-16T06:15:56.066Z,89.17
2022-08-16T06:16:56.035Z,88.17
2022-08-16T06:17:57.066Z,87.06
2022-08-16T06:18:56.026Z,87.42
2022-08-16T06:19:56.102Z,87.02
2022-08-16T06:20:56.173Z,85.61
2022-08-16T06:21:56.140Z,84.77
2022-08-16T06:23:03.068Z,84.93
2022-08-16T06:23:57.002Z,84.83
2022-08-16T06:24:56.018Z,83.49
2022-08-16T06:25:55.977Z,84.29
2022-08-16T06:26:58.023Z,83.35
2022-08-16T06:27:57.583Z,83.65
2022-08-16T06:28:55.926Z,82.31
2022-08-16T06:29:55.974Z,82.31
2022-08-16T06:30:56.018Z,83.07
2022-08-16T06:31:55.920Z,82.57
2022-08-16T06:32:55.883Z,82.13
2022-08-16T06:33:56.189Z,81.03
2022-08-16T06:35:02.094Z,79.63
2022-08-16T06:35:59.709Z,79.16
2022-08-16T06:36:59.262Z,79.41
2022-08-16T06:37:55.831Z,78.12
2022-08-16T06:38:56.935Z,77.58
2022-08-16T06:39:55.930Z,76.98
2022-08-16T06:40:55.788Z,77.28
2022-08-16T06:41:55.791Z,77.25
2022-08-16T06:42:57.638Z,77.81
2022-08-16T06:43:55.880Z,75.31
2022-08-16T06:44:55.884Z,75.91
2022-08-16T06:45:55.754Z,76.01
2022-08-16T06:46:55.788Z,77.04
2022-08-16T06:47:56.543Z,76.34
2022-08-16T06:48:55.760Z,76.95
2022-08-16T06:49:55.689Z,76.95
2022-08-16T06:50:55.695Z,76.61
2022-08-16T06:52:02.677Z,75.74
2022-08-16T06:52:58.413Z,75.27
2022-08-16T06:53:55.658Z,74.27
2022-08-16T06:54:55.661Z,74.13
2022-08-16T06:55:55.642Z,73.14
2022-08-16T06:56:55.640Z,71.22
2022-08-16T06:57:55.600Z,69.62
2022-08-16T06:58:55.593Z,71.18
2022-08-16T06:59:58.482Z,72.53
2022-08-16T07:00:55.631Z,69.89
2022-08-16T07:01:58.063Z,68.01
2022-08-16T07:02:55.865Z,68.01
2022-08-16T07:03:57.425Z,68.76
2022-08-16T07:04:55.562Z,69.56
2022-08-16T07:05:55.527Z,69.76
2022-08-16T07:06:55.526Z,70.75
2022-08-16T07:07:55.493Z,68.04
2022-08-16T07:08:55.500Z,67.97
2022-08-16T07:09:55.499Z,67.38
2022-08-16T07:10:55.488Z,68.24
2022-08-16T07:11:55.499Z,66.46
2022-08-16T07:13:03.413Z,65.70
2022-08-16T07:14:03.667Z,66.46
2022-08-16T07:15:00.773Z,64.28
2022-08-16T07:15:55.425Z,64.58
2022-08-16T07:16:59.440Z,64.09
2022-08-16T07:18:05.197Z,63.83
2022-08-16T07:18:59.415Z,62.68
2022-08-16T07:20:02.444Z,63.86
2022-08-16T07:21:01.611Z,63.07
2022-08-16T07:21:59.176Z,62.74
2022-08-16T07:22:58.974Z,66.69
2022-08-16T07:23:57.856Z,64.48
2022-08-16T07:24:56.359Z,63.10
2022-08-16T07:25:58.092Z,63.99
2022-08-16T07:26:57.679Z,62.93
2022-08-16T07:27:55.308Z,64.36
2022-08-16T07:28:55.367Z,63.04
2022-08-16T07:29:55.574Z,61.85
2022-08-16T07:30:55.411Z,61.07
2022-08-16T07:31:55.365Z,60.57
2022-08-16T07:32:55.470Z,61.07
2022-08-16T07:33:55.495Z,62.84
2022-08-16T07:34:58.234Z,63.14
2022-08-16T07:35:57.112Z,62.35
2022-08-16T07:37:18.000Z,62.41
2022-08-16T07:37:55.313Z,64.09
2022-08-16T07:38:55.400Z,63.50
2022-08-16T07:39:55.483Z,62.41
2022-08-16T07:41:09.606Z,62.19
2022-08-16T07:41:56.243Z,61.33
2022-08-16T07:42:55.280Z,63.67
2022-08-16T07:43:58.125Z,62.49
2022-08-16T07:46:38.822Z,62.33
2022-08-16T07:46:56.368Z,60.85
2022-08-16T07:47:55.187Z,59.15
2022-08-16T07:48:55.315Z,59.91
2022-08-16T07:49:58.089Z,57.94
2022-08-16T07:50:59.131Z,59.81
2022-08-16T07:51:56.153Z,58.78
2022-08-16T07:53:02.193Z,60.49
2022-08-16T07:54:10.716Z,61.51
2022-08-16T07:54:55.032Z,60.10
2022-08-16T07:55:55.067Z,58.83
2022-08-16T07:56:54.978Z,59.71
2022-08-16T07:58:03.716Z,58.80
2022-08-16T07:58:55.564Z,58.40
2022-08-16T07:59:57.407Z,58.80
2022-08-16T08:00:54.957Z,57.59
2022-08-16T08:02:01.704Z,58.08
2022-08-16T08:04:06.764Z,56.97
2022-08-16T08:04:55.899Z,58.54
2022-08-16T08:05:54.900Z,56.97
2022-08-16T08:06:54.858Z,56.68
2022-08-16T08:07:54.875Z,57.10
2022-08-16T08:08:57.381Z,59.48
2022-08-16T08:09:54.891Z,59.68
2022-08-16T08:13:16.341Z,60.24
2022-08-16T08:14:29.288Z,57.59
2022-08-16T08:15:25.347Z,59.82
2022-08-16T08:16:18.808Z,56.55
2022-08-16T08:17:16.010Z,55.99
2022-08-16T08:18:29.407Z,58.57
2022-08-16T08:19:16.921Z,57.10
2022-08-16T08:20:23.883Z,56.83
2022-08-16T08:21:16.894Z,59.78
2022-08-16T08:22:19.203Z,63.02
2022-08-16T08:24:37.625Z,57.82
2022-08-16T08:25:16.229Z,55.69
2022-08-16T08:26:17.898Z,56.48
2022-08-16T08:27:22.547Z,56.58
2022-08-16T08:28:16.922Z,55.20
2022-08-16T08:29:16.053Z,58.81
2022-08-16T08:30:49.206Z,57.04
2022-08-16T08:31:17.792Z,56.98
2022-08-16T08:32:56.993Z,56.40
2022-08-16T08:33:16.764Z,57.93
2022-08-16T08:34:15.768Z,54.83
2022-08-16T08:35:15.759Z,55.05
2022-08-16T08:36:21.662Z,56.03
2022-08-16T08:37:16.800Z,56.65
2022-08-16T08:38:15.781Z,60.60
2022-08-16T08:39:16.742Z,57.29
2022-08-16T08:40:16.455Z,59.58
2022-08-16T08:42:34.680Z,58.70
2022-08-16T08:43:41.283Z,57.46
2022-08-16T08:44:32.500Z,56.26
2022-08-16T08:45:49.179Z,55.32
2022-08-16T08:46:35.616Z,58.58
2022-08-16T08:47:31.504Z,57.50
2022-08-16T08:48:34.889Z,58.78
2022-08-16T08:49:50.511Z,59.66
2022-08-16T08:50:32.539Z,57.70
2022-08-16T08:51:36.701Z,57.77
2022-08-16T08:52:37.732Z,59.92
2022-08-16T08:53:59.951Z,56.47
2022-08-16T08:54:31.406Z,56.15
2022-08-16T08:55:31.363Z,55.26
2022-08-16T08:56:32.329Z,56.21
2022-08-16T08:57:31.320Z,53.94
2022-08-16T08:58:34.533Z,55.36
2022-08-16T08:59:31.312Z,55.16
2022-08-16T09:00:51.242Z,56.54
2022-08-16T09:01:56.759Z,53.89
2022-08-16T09:02:32.270Z,55.41
2022-08-16T09:03:32.485Z,57.77
2022-08-16T09:04:31.291Z,56.40
2022-08-16T09:05:35.772Z,54.93
2022-08-16T09:06:32.269Z,56.57
2022-08-16T09:07:31.220Z,55.29
2022-08-16T09:08:32.207Z,54.46
2022-08-16T09:09:34.381Z,56.68
2022-08-16T09:10:56.739Z,57.36
2022-08-16T09:11:40.697Z,54.58
2022-08-16T09:12:36.135Z,56.38
2022-08-16T09:13:32.851Z,58.34
2022-08-16T09:14:31.154Z,56.55
2022-08-16T09:15:31.165Z,56.13
2022-08-16T09:17:01.086Z,56.01
2022-08-16T09:17:48.751Z,54.53
2022-08-16T09:18:37.326Z,55.35
2022-08-16T09:19:32.866Z,56.42
2022-08-16T09:20:31.079Z,56.74
2022-08-16T09:21:31.356Z,55.96
2022-08-16T09:22:31.171Z,54.29
2022-08-16T09:23:31.060Z,54.17
2022-08-16T09:24:46.370Z,58.09
2022-08-16T09:25:34.333Z,55.86
2022-08-16T09:26:44.198Z,53.28
2022-08-16T09:27:56.663Z,54.07
2022-08-16T09:29:15.254Z,52.11
2022-08-16T09:29:44.931Z,56.94
2022-08-16T09:30:36.436Z,54.58
2022-08-16T09:31:31.978Z,54.98
2022-08-16T09:32:31.327Z,55.51
2022-08-16T09:33:39.896Z,55.88
2022-08-16T09:34:31.951Z,55.10
2022-08-16T09:35:30.965Z,54.24
2022-08-16T09:36:37.541Z,54.93
2022-08-16T09:37:36.578Z,54.21
2022-08-16T09:38:31.866Z,54.85
2022-08-16T09:40:32.819Z,55.32
2022-08-16T09:41:20.937Z,56.10
2022-08-16T09:42:20.934Z,56.79
2022-08-16T09:43:53.370Z,55.81
2022-08-16T09:45:09.759Z,57.77
2022-08-16T09:45:22.157Z,54.33
2022-08-16T09:46:44.985Z,56.86
2022-08-16T09:47:23.582Z,56.37
2022-08-16T09:48:37.149Z,54.04
2022-08-16T09:49:21.886Z,56.01
2022-08-16T09:50:22.538Z,56.01
2022-08-16T09:51:23.330Z,55.58
2022-08-16T09:52:23.892Z,51.34
2022-08-16T09:53:26.648Z,52.72
2022-08-16T09:54:21.137Z,53.01
2022-08-16T09:55:20.788Z,56.73
2022-08-16T09:56:20.752Z,51.83
2022-08-16T09:57:22.768Z,53.23
2022-08-16T09:58:41.318Z,51.93
2022-08-16T09:59:22.253Z,52.13
2022-08-16T10:00:44.441Z,53.08
2022-08-16T10:01:21.728Z,51.17
2022-08-16T10:02:34.881Z,51.32
2022-08-16T10:03:21.704Z,56.23
2022-08-16T10:04:33.092Z,55.29
2022-08-16T10:05:21.667Z,53.13
2022-08-16T10:06:20.693Z,54.02
2022-08-16T10:07:20.643Z,50.39
2022-08-16T10:08:26.213Z,52.35
2022-08-16T10:09:21.654Z,54.31
2022-08-16T10:10:31.007Z,52.33
2022-08-16T10:11:24.616Z,50.37
2022-08-16T10:12:29.657Z,51.86
2022-08-16T10:13:20.578Z,54.27
2022-08-16T10:14:24.883Z,52.67
2022-08-16T10:15:22.336Z,52.94
2022-08-16T10:16:22.134Z,51.96
2022-08-16T10:17:20.747Z,50.83
2022-08-16T10:19:02.242Z,52.80
2022-08-16T10:19:27.149Z,53.03
2022-08-16T10:20:24.391Z,52.52
2022-08-16T10:21:42.426Z,51.61
2022-08-16T10:22:22.954Z,51.22
2022-08-16T10:23:20.493Z,54.68
2022-08-16T10:24:27.984Z,51.54
2022-08-16T10:27:16.755Z,52.69
2022-08-16T10:27:18.204Z,51.25
2022-08-16T10:27:26.813Z,51.39
2022-08-16T10:28:29.985Z,52.47
2022-08-16T10:29:21.091Z,53.36
2022-08-16T10:30:24.882Z,54.77
2022-08-16T10:31:43.337Z,50.59
2022-08-16T10:32:21.428Z,52.94
2022-08-16T10:33:20.395Z,51.39
2022-08-16T10:34:30.718Z,53.94
2022-08-16T10:35:21.673Z,53.09
2022-08-16T10:36:38.162Z,50.63
2022-08-16T10:37:32.508Z,53.19
2022-08-16T10:38:36.799Z,55.02
2022-08-16T10:39:20.337Z,52.35
2022-08-16T10:40:29.154Z,51.17
2022-08-16T10:41:25.172Z,48.65
2022-08-16T10:42:20.514Z,52.67
2022-08-16T10:43:20.288Z,51.07
2022-08-16T10:44:20.280Z,49.36
2022-08-16T10:45:20.254Z,47.87
2022-08-16T10:46:39.358Z,52.17
2022-08-16T10:47:21.234Z,48.70
2022-08-16T10:48:27.411Z,50.16
2022-08-16T10:49:21.234Z,51.15
2022-08-16T10:50:20.512Z,52.20
2022-08-16T10:51:20.191Z,50.24
2022-08-16T10:52:21.268Z,51.03
2022-08-16T10:53:21.725Z,54.17
2022-08-16T10:54:28.523Z,52.47
2022-08-16T10:55:40.848Z,52.76
2022-08-16T10:56:56.224Z,53.01
2022-08-16T10:57:21.131Z,51.34
2022-08-16T10:58:20.165Z,52.52
2022-08-16T10:59:44.646Z,48.47
2022-08-16T11:00:22.765Z,49.77
2022-08-16T11:01:43.369Z,49.26
2022-08-16T11:02:57.694Z,49.92
2022-08-16T11:05:05.598Z,50.37
2022-08-16T11:05:21.086Z,50.16
2022-08-16T11:06:21.564Z,51.54
2022-08-16T11:08:31.316Z,50.93
2022-08-16T11:11:30.635Z,52.35
2022-08-16T11:12:30.638Z,51.32
2022-08-16T11:14:38.461Z,52.30
2022-08-16T11:15:30.650Z,52.50
2022-08-16T11:17:32.767Z,49.63
2022-08-16T11:19:03.269Z,50.90
2022-08-16T11:19:31.554Z,50.39
2022-08-16T11:20:41.929Z,48.24
2022-08-16T11:21:31.574Z,49.21
2022-08-16T11:22:46.911Z,48.14
2022-08-16T11:23:39.489Z,47.67
2022-08-16T11:24:42.820Z,49.07
2022-08-16T11:26:31.488Z,49.19
2022-08-16T11:27:35.684Z,47.60
2022-08-16T11:29:31.537Z,48.90
2022-08-16T11:30:39.420Z,48.87
2022-08-16T11:31:32.911Z,45.16
2022-08-16T11:33:55.043Z,45.56
2022-08-16T11:34:50.258Z,50.22
2022-08-16T11:36:31.446Z,48.63
2022-08-16T11:38:04.594Z,49.19
2022-08-16T11:38:51.225Z,52.10
2022-08-16T11:39:31.900Z,47.67
2022-08-16T11:40:32.746Z,49.33
2022-08-16T11:41:32.357Z,47.65
2022-08-16T11:42:35.676Z,47.20
2022-08-16T11:43:31.319Z,49.77
2022-08-16T11:44:52.266Z,51.51
2022-08-16T11:45:33.929Z,47.89
2022-08-16T11:46:44.162Z,49.43
2022-08-16T11:47:31.343Z,47.82
2022-08-16T11:48:30.273Z,47.24
2022-08-16T11:49:32.979Z,45.59
2022-08-16T11:51:41.203Z,46.64
2022-08-16T11:52:30.282Z,51.44
2022-08-16T11:53:30.284Z,48.01
2022-08-16T11:54:34.287Z,47.84
2022-08-16T11:55:31.402Z,49.02
2022-08-16T11:56:53.207Z,49.41
2022-08-16T11:57:31.195Z,51.12
2022-08-16T11:58:33.314Z,49.16
2022-08-16T12:00:54.002Z,46.11
2022-08-16T12:01:44.185Z,49.09
2022-08-16T12:02:33.080Z,52.89
2022-08-16T12:03:35.422Z,48.19
2022-08-16T12:04:31.242Z,46.64
2022-08-16T12:05:30.156Z,46.69
2022-08-16T12:06:30.888Z,47.61
2022-08-16T12:07:33.313Z,48.62
2022-08-16T12:08:44.592Z,47.83
2022-08-16T12:09:30.085Z,48.15
2022-08-16T12:10:30.057Z,48.86
2022-08-16T12:11:31.462Z,50.59
2022-08-16T12:12:30.074Z,50.73
2022-08-16T12:13:30.159Z,46.88
2022-08-16T12:14:35.035Z,50.98
2022-08-16T12:15:31.188Z,48.99
2022-08-16T12:16:34.862Z,47.18
2022-08-16T12:17:31.957Z,47.65
2022-08-16T12:18:30.015Z,47.60
2022-08-16T12:19:34.058Z,45.26
2022-08-16T12:20:30.982Z,45.36
2022-08-16T12:21:35.925Z,47.41
2022-08-16T12:22:33.872Z,46.99
2022-08-16T12:23:29.984Z,47.27
2022-08-16T12:24:29.988Z,47.28
2022-08-16T12:25:30.097Z,45.31
2022-08-16T12:26:43.169Z,45.62
2022-08-16T12:27:31.179Z,46.19
2022-08-16T12:28:36.846Z,46.21
2022-08-16T12:29:30.894Z,46.48
2022-08-16T12:30:32.148Z,43.96
2022-08-16T12:31:30.049Z,47.36
2022-08-16T12:32:38.137Z,43.55
2022-08-16T12:33:30.853Z,45.53
2022-08-16T12:34:37.582Z,44.63
2022-08-16T12:35:45.551Z,43.87
2022-08-16T12:36:30.126Z,42.91
2022-08-16T12:37:29.813Z,43.67
2022-08-16T12:38:41.425Z,44.02
2022-08-16T12:39:30.900Z,43.63
2022-08-16T12:40:30.051Z,44.29
2022-08-16T12:41:29.771Z,43.73
2022-08-16T12:42:35.169Z,42.36
2022-08-16T12:43:37.967Z,45.65
2022-08-16T12:44:31.419Z,42.14
2022-08-16T12:45:30.731Z,41.44
2022-08-16T12:46:31.042Z,41.87
2022-08-16T12:47:29.718Z,43.59
2022-08-16T12:48:33.771Z,43.80
2022-08-16T12:49:30.749Z,43.51
2022-08-16T12:50:33.185Z,39.36
2022-08-16T12:51:32.965Z,40.06
2022-08-16T12:52:40.019Z,42.68
2022-08-16T12:53:31.995Z,41.86
2022-08-16T12:54:31.694Z,43.49
2022-08-16T12:55:33.397Z,42.40
2022-08-16T12:56:29.661Z,42.11
2022-08-16T12:57:36.800Z,43.92
2022-08-16T12:58:47.490Z,42.80
2022-08-16T12:59:31.159Z,41.07
2022-08-16T13:00:33.469Z,40.48
2022-08-16T13:01:40.623Z,39.61
2022-08-16T13:02:33.275Z,41.93
2022-08-16T13:03:32.194Z,39.12
2022-08-16T13:04:33.143Z,40.43
2022-08-16T13:05:29.629Z,41.86
2022-08-16T13:06:33.479Z,44.02
2022-08-16T13:07:29.610Z,45.53
2022-08-16T13:08:30.983Z,49.08
2022-08-16T13:09:32.069Z,45.28
2022-08-16T13:10:45.041Z,46.85
2022-08-16T13:11:30.506Z,46.75